createdAt,value
2019-01-13T00:00:38.537Z,1.27
2019-01-13T00:03:06.788Z,1.47
2019-01-13T00:05:35.081Z,1.55
2019-01-13T00:08:03.318Z,1.90
2019-01-13T00:10:31.690Z,1.70
2019-01-13T00:13:00.002Z,1.55
2019-01-13T00:15:28.270Z,1.45
2019-01-13T00:17:58.139Z,1.50
2019-01-13T00:20:26.462Z,1.50
2019-01-13T00:22:54.822Z,1.50
2019-01-13T00:25:23.114Z,1.53
2019-01-13T00:27:51.370Z,1.47
2019-01-13T00:30:19.835Z,1.32
2019-01-13T00:32:49.132Z,1.55
2019-01-13T00:35:19.051Z,1.20
2019-01-13T00:37:47.323Z,1.32
2019-01-13T00:40:15.615Z,1.30
2019-01-13T00:42:43.913Z,1.43
2019-01-13T00:45:12.237Z,1.10
2019-01-13T00:47:43.485Z,1.70
2019-01-13T00:50:12.166Z,1.60
2019-01-13T00:52:40.436Z,1.20
2019-01-13T00:55:09.035Z,1.30
2019-01-13T00:57:37.297Z,1.53
2019-01-13T01:00:07.680Z,1.83
2019-01-13T01:02:36.005Z,1.20
2019-01-13T01:05:04.614Z,1.27
2019-01-13T01:07:32.872Z,1.40
2019-01-13T01:10:02.074Z,1.57
2019-01-13T01:12:31.368Z,1.95
2019-01-13T01:14:59.605Z,1.47
2019-01-13T01:17:27.935Z,1.55
2019-01-13T01:19:56.174Z,1.53
2019-01-13T01:22:24.423Z,1.32
2019-01-13T01:24:52.708Z,1.10
2019-01-13T01:27:21.057Z,1.25
2019-01-13T01:29:49.293Z,1.45
2019-01-13T01:32:17.589Z,1.32
2019-01-13T01:34:45.832Z,1.43
2019-01-13T01:37:14.130Z,1.77
2019-01-13T01:39:42.394Z,1.00
2019-01-13T01:42:10.599Z,1.40
2019-01-13T01:44:38.832Z,1.37
2019-01-13T01:47:07.038Z,1.25
2019-01-13T01:49:35.282Z,1.30
2019-01-13T01:52:03.538Z,1.67
2019-01-13T01:54:31.749Z,1.53
2019-01-13T01:56:59.982Z,1.50
2019-01-13T01:59:28.288Z,1.30
2019-01-13T02:01:56.542Z,1.30
2019-01-13T02:04:24.739Z,1.20
2019-01-13T02:06:52.976Z,1.47
2019-01-13T02:09:21.182Z,1.20
2019-01-13T02:11:49.498Z,1.65
2019-01-13T02:14:17.708Z,1.60
2019-01-13T02:16:45.954Z,1.23
2019-01-13T02:19:14.172Z,1.20
2019-01-13T02:21:42.558Z,1.23
2019-01-13T02:24:10.739Z,1.40
2019-01-13T02:26:39.084Z,1.20
2019-01-13T02:29:07.280Z,1.10
2019-01-13T02:31:35.505Z,1.33
2019-01-13T02:34:03.799Z,1.47
2019-01-13T02:36:32.113Z,1.20
2019-01-13T02:39:00.326Z,1.35
2019-01-13T02:41:28.618Z,1.27
2019-01-13T02:43:56.892Z,0.93
2019-01-13T02:46:25.179Z,0.93
2019-01-13T02:48:53.417Z,0.80
2019-01-13T02:51:21.719Z,1.03
2019-01-13T02:53:52.002Z,0.83
2019-01-13T02:56:20.234Z,0.90
2019-01-13T02:58:48.451Z,0.80
2019-01-13T03:01:16.798Z,0.90
2019-01-13T03:03:45.011Z,1.00
2019-01-13T03:06:13.358Z,0.77
2019-01-13T03:08:41.579Z,0.93
2019-01-13T03:11:09.889Z,1.27
2019-01-13T03:13:38.114Z,1.07
2019-01-13T03:16:06.443Z,1.40
2019-01-13T03:18:34.741Z,1.27
2019-01-13T03:21:03.006Z,1.20
2019-01-13T03:23:32.185Z,1.30
2019-01-13T03:26:00.444Z,1.27
2019-01-13T03:28:28.662Z,1.57
2019-01-13T03:31:10.735Z,1.97
2019-01-13T03:33:26.831Z,1.30
2019-01-13T03:35:55.019Z,1.63
2019-01-13T03:38:23.246Z,1.57
2019-01-13T03:40:51.590Z,1.60
2019-01-13T03:43:19.811Z,1.30
2019-01-13T03:45:48.054Z,2.00
2019-01-13T03:48:16.307Z,1.30
2019-01-13T03:50:44.513Z,1.47
2019-01-13T03:53:13.784Z,1.80
2019-01-13T03:55:41.996Z,1.35
2019-01-13T03:58:11.262Z,1.20
2019-01-13T04:00:39.662Z,1.40
2019-01-13T04:03:07.901Z,1.70
2019-01-13T04:05:36.634Z,1.50
2019-01-13T04:08:04.858Z,1.50
2019-01-13T04:10:33.087Z,1.20
2019-01-13T04:13:01.935Z,1.62
2019-01-13T04:15:37.451Z,1.07
2019-01-13T04:18:05.778Z,1.40
2019-01-13T04:20:33.982Z,1.57
2019-01-13T04:23:02.311Z,1.57
2019-01-13T04:25:30.524Z,1.72
2019-01-13T04:27:58.771Z,1.47
2019-01-13T04:30:27.018Z,1.27
2019-01-13T04:32:55.270Z,1.30
2019-01-13T04:35:24.520Z,1.50
2019-01-13T04:37:53.737Z,1.47
2019-01-13T04:40:21.947Z,1.32
2019-01-13T04:42:50.197Z,1.33
2019-01-13T04:45:18.444Z,1.45
2019-01-13T04:47:46.701Z,1.42
2019-01-13T04:50:14.965Z,1.35
2019-01-13T04:52:43.184Z,1.00
2019-01-13T04:55:11.393Z,1.47
2019-01-13T04:57:39.653Z,1.50
2019-01-13T05:00:11.154Z,1.17
2019-01-13T05:02:39.387Z,1.60
2019-01-13T05:05:07.918Z,1.47
2019-01-13T05:07:36.169Z,1.10
2019-01-13T05:10:05.310Z,1.50
2019-01-13T05:12:33.619Z,1.30
2019-01-13T05:15:01.809Z,1.27
2019-01-13T05:17:30.114Z,1.25
2019-01-13T05:19:58.355Z,1.25
2019-01-13T05:22:26.596Z,1.15
2019-01-13T05:24:55.788Z,1.22
2019-01-13T05:27:24.047Z,1.10
2019-01-13T05:29:52.307Z,1.20
2019-01-13T05:32:20.497Z,1.00
2019-01-13T05:34:48.769Z,1.00
2019-01-13T05:37:17.013Z,1.25
2019-01-13T05:39:45.349Z,0.80
2019-01-13T05:42:13.590Z,1.00
2019-01-13T05:44:41.798Z,1.10
2019-01-13T05:47:10.126Z,0.80
2019-01-13T05:49:38.423Z,0.80
2019-01-13T05:52:06.691Z,0.72
2019-01-13T05:54:34.952Z,0.70
2019-01-13T05:57:03.213Z,0.60
2019-01-13T05:59:31.545Z,0.65
2019-01-13T06:01:59.854Z,1.10
2019-01-13T06:04:28.061Z,0.80
2019-01-13T06:06:56.425Z,0.93
2019-01-13T06:09:24.667Z,1.10
2019-01-13T06:11:52.917Z,1.10
2019-01-13T06:14:22.206Z,1.40
2019-01-13T06:16:51.437Z,1.10
2019-01-13T06:19:19.630Z,1.37
2019-01-13T06:21:47.916Z,1.52
2019-01-13T06:24:16.223Z,1.60
2019-01-13T06:26:44.578Z,1.27
2019-01-13T06:29:12.817Z,1.57
2019-01-13T06:31:41.004Z,1.45
2019-01-13T06:34:09.257Z,1.30
2019-01-13T06:36:37.537Z,1.47
2019-01-13T06:39:06.773Z,1.35
2019-01-13T06:41:35.023Z,1.47
2019-01-13T06:44:03.341Z,1.37
2019-01-13T06:46:31.558Z,1.20
2019-01-13T06:49:00.069Z,1.30
2019-01-13T06:51:28.333Z,1.32
2019-01-13T06:53:56.575Z,0.93
2019-01-13T06:56:24.827Z,1.20
2019-01-13T06:58:53.053Z,1.05
2019-01-13T07:01:21.293Z,1.40
2019-01-13T07:03:49.534Z,1.20
2019-01-13T07:06:18.838Z,1.20
2019-01-13T07:08:47.080Z,1.07
2019-01-13T07:11:15.305Z,0.90
2019-01-13T07:13:43.505Z,1.17
2019-01-13T07:16:11.729Z,1.10
2019-01-13T07:18:39.958Z,1.15
2019-01-13T07:21:08.188Z,1.30
2019-01-13T07:23:36.476Z,1.30
2019-01-13T07:26:04.789Z,1.30
2019-01-13T07:28:33.046Z,1.30
2019-01-13T07:31:01.275Z,1.02
2019-01-13T07:33:30.570Z,0.93
2019-01-13T07:35:58.838Z,0.80
2019-01-13T07:38:27.144Z,0.90
2019-01-13T07:40:55.407Z,0.80
2019-01-13T07:43:23.639Z,0.97
2019-01-13T07:45:51.894Z,1.05
2019-01-13T07:48:22.868Z,0.70
2019-01-13T07:50:53.471Z,0.95
2019-01-13T07:53:21.823Z,0.75
2019-01-13T07:55:50.080Z,0.95
2019-01-13T07:58:18.408Z,0.82
2019-01-13T08:00:46.636Z,0.80
2019-01-13T08:03:15.022Z,0.98
2019-01-13T08:05:43.266Z,0.90
2019-01-13T08:08:11.603Z,0.60
2019-01-13T08:10:39.839Z,1.07
2019-01-13T08:13:10.410Z,0.72
2019-01-13T08:15:38.661Z,0.70
2019-01-13T08:18:06.905Z,0.60
2019-01-13T08:20:35.131Z,0.78
2019-01-13T08:23:03.405Z,0.62
2019-01-13T08:25:33.505Z,0.90
2019-01-13T08:28:01.745Z,0.78
2019-01-13T08:30:29.969Z,0.80
2019-01-13T08:32:58.227Z,0.90
2019-01-13T08:35:26.566Z,0.72
2019-01-13T08:37:56.405Z,0.72
2019-01-13T08:40:24.763Z,0.70
2019-01-13T08:42:53.030Z,0.80
2019-01-13T08:45:21.272Z,0.65
2019-01-13T08:47:49.528Z,0.60
2019-01-13T08:50:21.563Z,0.60
2019-01-13T08:52:49.894Z,0.73
2019-01-13T08:55:18.263Z,0.60
2019-01-13T08:57:46.628Z,0.60
2019-01-13T09:00:16.514Z,0.47
2019-01-13T09:02:44.892Z,0.50
2019-01-13T09:05:13.109Z,0.45
2019-01-13T09:07:41.422Z,0.40
2019-01-13T09:10:10.667Z,0.35
2019-01-13T09:12:38.939Z,0.50
2019-01-13T09:15:08.702Z,0.50
2019-01-13T09:17:37.026Z,0.53
2019-01-13T09:20:06.010Z,0.40
2019-01-13T09:22:34.361Z,0.33
2019-01-13T09:25:02.669Z,0.57
2019-01-13T09:27:30.960Z,0.50
2019-01-13T09:29:59.294Z,0.33
2019-01-13T09:32:27.578Z,0.45
2019-01-13T09:34:55.811Z,0.43
2019-01-13T09:37:24.133Z,0.47
2019-01-13T09:39:52.417Z,0.40
2019-01-13T09:42:20.896Z,0.30
2019-01-13T09:44:49.188Z,0.42
2019-01-13T09:47:17.406Z,0.47
2019-01-13T09:49:49.902Z,0.40
2019-01-13T09:52:15.542Z,0.30
2019-01-13T09:54:43.814Z,0.40
2019-01-13T09:57:12.085Z,0.30
2019-01-13T09:59:40.530Z,0.42
2019-01-13T10:02:09.355Z,0.37
2019-01-13T10:04:37.596Z,0.40
2019-01-13T10:07:05.867Z,0.45
2019-01-13T10:09:34.088Z,0.50
2019-01-13T10:12:02.395Z,0.42
2019-01-13T10:14:30.751Z,0.35
2019-01-13T10:16:59.168Z,0.42
2019-01-13T10:19:27.483Z,0.40
2019-01-13T10:21:55.766Z,0.20
2019-01-13T10:24:24.034Z,0.43
2019-01-13T10:26:52.327Z,0.30
2019-01-13T10:29:20.632Z,0.20
2019-01-13T10:31:48.894Z,0.23
2019-01-13T10:34:17.196Z,0.47
2019-01-13T10:36:45.474Z,0.35
2019-01-13T10:39:13.734Z,0.45
2019-01-13T10:41:42.077Z,0.45
2019-01-13T10:44:10.365Z,0.35
2019-01-13T10:46:38.634Z,0.40
2019-01-13T10:49:06.941Z,0.40
2019-01-13T10:51:35.218Z,0.50
2019-01-13T10:54:09.081Z,0.40
2019-01-13T10:56:33.717Z,0.60
2019-01-13T10:59:02.167Z,0.60
2019-01-13T11:01:30.568Z,0.40
2019-01-13T11:03:58.973Z,1.32
2019-01-13T11:06:27.316Z,0.50
2019-01-13T11:08:55.575Z,0.33
2019-01-13T11:11:23.879Z,0.30
2019-01-13T11:13:52.136Z,0.42
2019-01-13T11:16:20.446Z,0.42
2019-01-13T11:18:48.749Z,0.50
2019-01-13T11:21:16.955Z,0.40
2019-01-13T11:23:45.200Z,0.30
2019-01-13T11:26:14.563Z,0.50
2019-01-13T11:28:42.842Z,0.50
2019-01-13T11:31:11.099Z,0.75
2019-01-13T11:33:41.507Z,0.50
2019-01-13T11:36:09.847Z,0.88
2019-01-13T11:38:38.224Z,0.50
2019-01-13T11:41:06.795Z,0.30
2019-01-13T11:43:35.101Z,0.45
2019-01-13T11:46:03.322Z,0.50
2019-01-13T11:48:31.594Z,0.40
2019-01-13T11:50:59.879Z,0.40
2019-01-13T11:53:28.421Z,0.50
2019-01-13T11:55:56.761Z,0.50
2019-01-13T11:58:25.027Z,0.60
2019-01-13T12:00:53.329Z,0.55
2019-01-13T12:03:21.646Z,0.40
2019-01-13T12:05:49.970Z,0.50
2019-01-13T12:08:18.594Z,0.68
2019-01-13T12:10:46.844Z,0.80
2019-01-13T12:13:15.136Z,0.60
2019-01-13T12:15:43.442Z,0.90
2019-01-13T12:18:11.753Z,0.68
2019-01-13T12:20:40.003Z,1.00
2019-01-13T12:23:08.333Z,0.90
2019-01-13T12:25:36.571Z,0.90
2019-01-13T12:28:04.869Z,1.12
2019-01-13T12:30:33.124Z,1.50
2019-01-13T12:33:01.578Z,1.13
2019-01-13T12:35:29.979Z,1.42
2019-01-13T12:37:58.351Z,1.60
2019-01-13T12:40:27.205Z,1.22
2019-01-13T12:42:55.584Z,1.50
2019-01-13T12:45:23.951Z,1.60
2019-01-13T12:47:52.279Z,2.00
2019-01-13T12:50:22.551Z,1.40
2019-01-13T12:52:50.817Z,2.08
2019-01-13T12:55:19.120Z,1.90
2019-01-13T12:57:48.350Z,1.42
2019-01-13T13:00:16.810Z,1.17
2019-01-13T13:02:45.141Z,1.42
2019-01-13T13:05:14.409Z,1.77
2019-01-13T13:07:44.751Z,1.60
2019-01-13T13:10:14.816Z,1.80
2019-01-13T13:12:43.117Z,1.65
2019-01-13T13:15:11.354Z,1.98
2019-01-13T13:17:39.636Z,1.92
2019-01-13T13:20:08.219Z,1.93
2019-01-13T13:22:37.466Z,2.25
2019-01-13T13:25:07.145Z,2.10
2019-01-13T13:27:35.372Z,2.47
2019-01-13T13:30:04.165Z,2.30
2019-01-13T13:32:32.408Z,1.95
2019-01-13T13:35:00.786Z,2.33
2019-01-13T13:37:29.038Z,2.33
2019-01-13T13:39:57.333Z,2.40
2019-01-13T13:42:25.679Z,1.72
2019-01-13T13:44:53.961Z,2.33
2019-01-13T13:47:22.196Z,2.33
2019-01-13T13:49:51.833Z,1.85
2019-01-13T13:52:20.247Z,1.63
2019-01-13T13:54:48.535Z,2.00
2019-01-13T13:57:16.784Z,2.15
2019-01-13T13:59:45.170Z,2.10
2019-01-13T14:02:13.701Z,1.90
2019-01-13T14:04:42.102Z,2.87
2019-01-13T14:07:13.172Z,2.12
2019-01-13T14:09:40.257Z,2.40
2019-01-13T14:12:08.690Z,1.60
2019-01-13T14:14:36.958Z,2.00
2019-01-13T14:17:07.087Z,1.55
2019-01-13T14:19:35.353Z,1.67
2019-01-13T14:22:03.639Z,1.95
2019-01-13T14:24:32.635Z,1.65
2019-01-13T14:27:00.933Z,1.90
2019-01-13T14:29:29.487Z,1.80
2019-01-13T14:31:57.800Z,1.70
2019-01-13T14:34:26.108Z,1.82
2019-01-13T14:36:54.375Z,1.67
2019-01-13T14:39:22.737Z,2.00
2019-01-13T14:41:51.101Z,1.70
2019-01-13T14:44:19.594Z,1.62
2019-01-13T14:46:48.036Z,1.40
2019-01-13T14:49:16.394Z,1.90
2019-01-13T14:51:44.981Z,1.60
2019-01-13T14:54:13.334Z,1.20
2019-01-13T14:56:41.657Z,1.37
2019-01-13T14:59:10.106Z,1.27
2019-01-13T15:01:38.732Z,0.95
2019-01-13T15:04:07.319Z,1.10
2019-01-13T15:06:35.805Z,0.80
2019-01-13T15:09:07.672Z,0.80
2019-01-13T15:11:36.042Z,0.93
2019-01-13T15:14:04.345Z,0.83
2019-01-13T15:16:32.941Z,0.90
2019-01-13T15:19:01.328Z,0.93
2019-01-13T15:21:29.890Z,0.90
2019-01-13T15:23:58.171Z,1.00
2019-01-13T15:26:26.507Z,0.98
2019-01-13T15:28:54.845Z,1.10
2019-01-13T15:31:23.113Z,1.05
2019-01-13T15:33:51.432Z,1.60
2019-01-13T15:36:19.807Z,1.20
2019-01-13T15:38:48.084Z,1.67
2019-01-13T15:41:16.430Z,1.20
2019-01-13T15:43:44.782Z,1.80
2019-01-13T15:46:13.012Z,1.75
2019-01-13T15:48:41.277Z,1.35
2019-01-13T15:51:09.554Z,2.08
2019-01-13T15:53:37.962Z,1.72
2019-01-13T15:56:07.335Z,1.47
2019-01-13T15:58:35.617Z,1.95
2019-01-13T16:01:03.887Z,1.70
2019-01-13T16:03:32.176Z,1.65
2019-01-13T16:06:00.466Z,2.15
2019-01-13T16:08:28.760Z,2.12
2019-01-13T16:10:57.090Z,1.90
2019-01-13T16:13:25.651Z,1.67
2019-01-13T16:15:56.272Z,1.35
2019-01-13T16:18:24.770Z,1.90
2019-01-13T16:20:53.856Z,2.00
2019-01-13T16:23:22.234Z,1.50
2019-01-13T16:25:51.477Z,1.75
2019-01-13T16:28:19.812Z,1.60
2019-01-13T16:30:48.048Z,1.20
2019-01-13T16:33:16.369Z,1.75
2019-01-13T16:35:44.740Z,1.95
2019-01-13T16:38:13.000Z,1.67
2019-01-13T16:40:42.350Z,1.50
2019-01-13T16:43:10.632Z,1.77
2019-01-13T16:45:38.908Z,1.82
2019-01-13T16:48:07.314Z,1.98
2019-01-13T16:50:35.557Z,1.90
2019-01-13T16:53:06.049Z,2.35
2019-01-13T16:55:33.924Z,1.98
2019-01-13T16:58:02.192Z,1.90
2019-01-13T17:00:30.717Z,1.85
2019-01-13T17:02:58.998Z,2.30
2019-01-13T17:05:27.888Z,2.27
2019-01-13T17:07:56.166Z,2.15
2019-01-13T17:10:24.906Z,2.58
2019-01-13T17:12:53.145Z,2.35
2019-01-13T17:15:25.456Z,2.10
2019-01-13T17:17:55.233Z,2.35
2019-01-13T17:20:23.503Z,2.20
2019-01-13T17:22:51.828Z,2.13
2019-01-13T17:25:21.046Z,2.37
2019-01-13T17:27:49.400Z,1.93
2019-01-13T17:30:18.688Z,2.27
2019-01-13T17:32:47.442Z,2.27
2019-01-13T17:35:15.816Z,2.70
2019-01-13T17:37:44.141Z,2.30
2019-01-13T17:40:13.212Z,2.55
2019-01-13T17:42:41.517Z,2.62
2019-01-13T17:45:11.088Z,2.40
2019-01-13T17:47:39.354Z,2.67
2019-01-13T17:50:09.312Z,2.60
2019-01-13T17:52:37.620Z,2.40
2019-01-13T17:55:09.119Z,2.20
2019-01-13T17:57:37.434Z,2.02
2019-01-13T18:00:08.583Z,2.20
2019-01-13T18:02:36.947Z,2.40
2019-01-13T18:05:05.230Z,2.35
2019-01-13T18:07:33.505Z,2.08
2019-01-13T18:10:01.843Z,2.37
2019-01-13T18:12:30.175Z,2.35
2019-01-13T18:14:58.497Z,2.40
2019-01-13T18:17:26.821Z,2.20
2019-01-13T18:19:55.084Z,2.52
2019-01-13T18:22:23.992Z,2.85
2019-01-13T18:24:52.371Z,2.47
2019-01-13T18:27:20.752Z,2.10
2019-01-13T18:29:49.047Z,2.08
2019-01-13T18:32:17.455Z,2.30
2019-01-13T18:34:50.219Z,2.05
2019-01-13T18:37:15.801Z,2.75
2019-01-13T18:39:44.025Z,1.92
2019-01-13T18:42:12.355Z,2.55
2019-01-13T18:44:40.633Z,1.92
2019-01-13T18:47:08.902Z,2.20
2019-01-13T18:49:37.207Z,2.33
2019-01-13T18:52:06.644Z,2.83
2019-01-13T18:54:34.937Z,2.58
2019-01-13T18:57:03.320Z,2.83
2019-01-13T18:59:31.660Z,2.35
2019-01-13T19:01:59.883Z,2.50
2019-01-13T19:04:28.185Z,2.07
2019-01-13T19:06:56.463Z,1.90
2019-01-13T19:09:25.778Z,2.08
2019-01-13T19:11:54.006Z,2.47
2019-01-13T19:14:36.019Z,2.55
2019-01-13T19:17:05.222Z,2.20
2019-01-13T19:19:52.857Z,2.20
2019-01-13T19:22:21.325Z,2.33
2019-01-13T19:24:53.526Z,2.40
2019-01-13T19:27:24.074Z,2.40
2019-01-13T19:29:52.376Z,2.15
2019-01-13T19:32:20.735Z,1.92
2019-01-13T19:34:48.962Z,2.47
2019-01-13T19:37:17.289Z,2.42
2019-01-13T19:39:45.573Z,2.30
2019-01-13T19:42:13.981Z,2.10
2019-01-13T19:44:42.294Z,2.33
2019-01-13T19:47:10.711Z,2.30
2019-01-13T19:49:39.023Z,2.37
2019-01-13T19:52:07.390Z,3.12
2019-01-13T19:54:35.623Z,2.10
2019-01-13T19:57:03.945Z,2.20
2019-01-13T19:59:32.426Z,1.72
2019-01-13T20:02:00.652Z,1.85
2019-01-13T20:04:29.037Z,1.73
2019-01-13T20:06:58.167Z,2.05
2019-01-13T20:09:26.547Z,2.00
2019-01-13T20:11:54.921Z,1.70
2019-01-13T20:14:23.199Z,2.30
2019-01-13T20:16:51.577Z,1.90
2019-01-13T20:19:19.895Z,2.08
2019-01-13T20:21:48.153Z,2.40
2019-01-13T20:24:16.423Z,2.45
2019-01-13T20:26:44.754Z,1.80
2019-01-13T20:29:12.974Z,1.80
2019-01-13T20:31:41.507Z,2.45
2019-01-13T20:34:09.972Z,1.70
2019-01-13T20:36:38.220Z,1.92
2019-01-13T20:39:08.905Z,2.00
2019-01-13T20:41:37.172Z,1.62
2019-01-13T20:44:05.541Z,1.87
2019-01-13T20:46:33.837Z,1.98
2019-01-13T20:49:02.059Z,1.70
2019-01-13T20:51:30.338Z,1.80
2019-01-13T20:53:58.589Z,1.83
2019-01-13T20:56:26.878Z,2.08
2019-01-13T20:58:55.212Z,1.92
2019-01-13T21:01:23.490Z,1.95
2019-01-13T21:03:52.110Z,1.80
2019-01-13T21:06:20.572Z,1.62
2019-01-13T21:08:51.677Z,1.87
2019-01-13T21:11:19.998Z,1.82
2019-01-13T21:13:48.377Z,1.80
2019-01-13T21:16:16.626Z,2.22
2019-01-13T21:18:44.871Z,1.85
2019-01-13T21:21:13.192Z,1.95
2019-01-13T21:23:41.509Z,2.15
2019-01-13T21:26:09.873Z,1.90
2019-01-13T21:28:38.169Z,2.15
2019-01-13T21:31:06.524Z,2.20
2019-01-13T21:33:34.829Z,2.10
2019-01-13T21:36:03.133Z,2.50
2019-01-13T21:38:31.428Z,2.30
2019-01-13T21:40:59.662Z,2.05
2019-01-13T21:43:27.942Z,2.45
2019-01-13T21:45:56.197Z,2.40
2019-01-13T21:48:24.553Z,2.45
2019-01-13T21:50:52.906Z,2.60
2019-01-13T21:53:21.192Z,2.33
2019-01-13T21:55:49.427Z,2.10
2019-01-13T21:58:17.753Z,2.42
2019-01-13T22:00:46.958Z,2.40
2019-01-13T22:03:15.200Z,2.55
2019-01-13T22:05:43.476Z,2.00
2019-01-13T22:08:11.748Z,2.47
2019-01-13T22:10:39.990Z,2.75
2019-01-13T22:13:08.259Z,2.58
2019-01-13T22:15:37.635Z,2.40
2019-01-13T22:18:05.953Z,2.15
2019-01-13T22:20:34.278Z,2.60
2019-01-13T22:23:02.533Z,2.33
2019-01-13T22:25:30.791Z,2.35
2019-01-13T22:27:59.105Z,2.65
2019-01-13T22:30:27.608Z,2.40
2019-01-13T22:32:55.874Z,2.62
2019-01-13T22:35:24.281Z,2.65
2019-01-13T22:37:55.876Z,2.98
2019-01-13T22:40:26.873Z,2.50
2019-01-13T22:42:55.139Z,2.27
2019-01-13T22:45:23.931Z,2.40
2019-01-13T22:47:52.261Z,2.90
2019-01-13T22:50:22.694Z,2.70
2019-01-13T22:52:50.950Z,3.47
2019-01-13T22:55:19.300Z,2.43
2019-01-13T22:57:47.584Z,2.90
2019-01-13T23:00:58.188Z,3.37
2019-01-13T23:03:26.461Z,3.33
2019-01-13T23:05:55.768Z,2.55
2019-01-13T23:08:24.179Z,3.42
2019-01-13T23:10:52.417Z,3.00
2019-01-13T23:13:20.662Z,3.37
2019-01-13T23:15:48.944Z,2.72
2019-01-13T23:18:17.169Z,3.37
2019-01-13T23:20:45.453Z,3.47
2019-01-13T23:23:13.680Z,2.98
2019-01-13T23:25:41.885Z,2.90
2019-01-13T23:28:10.159Z,3.02
2019-01-13T23:30:38.415Z,2.77
2019-01-13T23:33:06.710Z,2.60
2019-01-13T23:35:34.936Z,3.42
2019-01-13T23:38:03.192Z,2.72
2019-01-13T23:40:31.432Z,3.62
2019-01-13T23:42:59.728Z,2.83
2019-01-13T23:45:27.969Z,3.22
2019-01-13T23:47:56.273Z,3.30
2019-01-13T23:50:24.530Z,2.87
2019-01-13T23:52:52.925Z,2.83
2019-01-13T23:55:21.190Z,3.65
2019-01-13T23:57:49.592Z,2.87
